Archival Weather

Chicago O'Hare International

Chicago, Illinois (KORD)

Report from: Thursday, March 21, 2024 10:51 AM CDT
Current time: Tuesday, May 21, 2024 11:16 AM CDT

Current weather – Weather history – Daily summaries
Weather forecast

Temperature1.7°C (35.1°F)
Wind chill0.1°C (32.2°F)
Dew point-7.8°C (18.0°F)
Winds 3 kts (1.5 m/s, 3.5 mph) West (280°)
Visibility10 mi. (16.1 km)
Clouds Few clouds 4,100 ft. (1,250 m)
Ceiling: Overcast 7,500 ft. (2,286 m)
Altimeter30.31 in.Hg (1026 mB)
Relative humidity49 %
Density altitude-2,036 ft. (-620 m)
Sea-level pressure102.7 kPa (1027 mB, 30.33 in.Hg)
Remarks Automated weather observing station with precipitation discriminator
Flight conditions Visual Meteorological Conditions
Raw dataKORD 211551Z 28003KT 10SM FEW041 OVC075 02/M08 A3031 RMK AO2 SLP272 T00171078
An error has occurred. This application may no longer respond until reloaded. Reload 🗙